Time;durP1;ratioP1;P1;durP2;ratioP2;P2;SDS_P1;SDS_P2;PMS_P1;PMS_P2;Temp;Humidity;BMP_temperature;BMP_pressure;BME280_temperature;BME280_humidity;BME280_pressure;Samples;Min_cycle;Max_cycle;Signal;HPM_P1;HPM_P2
2023/06/20 00:00:13;;;;;;;5.65;3.92;;;;;;;20.48;82.59;101106.50;6254042;28;20037;-73
2023/06/20 00:03:14;;;;;;;6.63;4.13;;;;;;;20.41;83.65;101114.19;6250729;28;20049;-73
2023/06/20 00:06:16;;;;;;;5.60;3.90;;;;;;;20.44;84.08;101119.28;6255008;28;20057;-73
2023/06/20 00:09:18;;;;;;;7.88;3.83;;;;;;;20.45;83.88;101114.78;6247733;28;20045;-73
2023/06/20 00:12:20;;;;;;;7.18;4.28;;;;;;;20.42;83.89;101120.38;6237796;28;20042;-73
2023/06/20 00:15:25;;;;;;;7.70;3.88;;;;;;;20.35;84.75;101114.75;6254818;28;20366;-74
2023/06/20 00:18:26;;;;;;;10.48;4.57;;;;;;;20.32;84.87;101117.69;6246969;28;20438;-73
2023/06/20 00:21:28;;;;;;;6.13;4.00;;;;;;;20.23;84.81;101119.34;6254057;28;20350;-73
2023/06/20 00:24:32;;;;;;;7.85;4.20;;;;;;;20.16;85.72;101122.66;6246192;28;20048;-73
2023/06/20 00:27:34;;;;;;;6.03;3.85;;;;;;;20.14;86.44;101125.50;6248945;28;20457;-74
2023/06/20 00:30:35;;;;;;;6.47;4.22;;;;;;;20.05;86.67;101110.28;6251760;28;20046;-73
2023/06/20 00:33:36;;;;;;;9.82;4.70;;;;;;;19.98;87.88;101117.13;6249260;28;20048;-73
2023/06/20 00:36:38;;;;;;;5.22;3.58;;;;;;;20.00;88.11;101112.50;6246337;28;20072;-74
2023/06/20 00:39:41;;;;;;;8.60;4.97;;;;;;;19.92;89.09;101123.84;6254522;28;20503;-73
2023/06/20 00:42:42;;;;;;;7.60;4.50;;;;;;;19.92;89.87;101118.50;6253388;28;20394;-73
2023/06/20 00:45:44;;;;;;;7.80;4.53;;;;;;;19.92;89.32;101115.84;6254184;28;20323;-73
2023/06/20 00:48:47;;;;;;;7.65;4.72;;;;;;;19.90;89.86;101103.63;6254265;28;20064;-73
2023/06/20 00:51:50;;;;;;;11.45;5.68;;;;;;;19.84;90.33;101110.31;6253326;28;20366;-73
2023/06/20 00:54:52;;;;;;;7.53;4.35;;;;;;;19.77;90.81;101109.19;6249737;28;20335;-73
2023/06/20 00:57:57;;;;;;;7.60;5.03;;;;;;;19.68;91.29;101105.47;6253935;28;20042;-73
2023/06/20 01:00:58;;;;;;;8.90;5.25;;;;;;;19.59;92.54;101097.38;6253366;28;20140;-73
2023/06/20 01:04:00;;;;;;;8.75;4.68;;;;;;;19.54;93.10;101103.13;6252278;28;20353;-73
2023/06/20 01:07:11;;;;;;;7.72;4.60;;;;;;;19.50;93.93;101109.69;6239222;28;20132;-73
2023/06/20 01:10:23;;;;;;;10.45;5.80;;;;;;;19.43;95.31;101105.84;6243200;28;20045;-73
2023/06/20 01:13:33;;;;;;;13.00;5.75;;;;;;;19.43;95.68;101103.16;6228815;28;20046;-73
2023/06/20 01:16:42;;;;;;;8.52;4.97;;;;;;;19.41;96.11;101094.47;6248886;28;20179;-73
2023/06/20 01:20:10;;;;;;;10.00;5.05;;;;;;;19.40;97.44;101098.13;6253521;28;20045;-73
2023/06/20 01:23:15;;;;;;;9.10;5.00;;;;;;;19.30;98.80;101095.38;6236865;28;20064;-74
2023/06/20 01:26:21;;;;;;;11.15;5.40;;;;;;;19.29;99.33;101096.34;6236701;28;20053;-73
2023/06/20 01:29:32;;;;;;;10.15;5.88;;;;;;;19.21;99.54;101099.69;6230631;28;20050;-73
2023/06/20 01:32:39;;;;;;;9.30;5.90;;;;;;;19.12;100.00;101097.78;6227333;28;20057;-73
2023/06/20 01:35:43;;;;;;;7.63;4.82;;;;;;;19.10;100.00;101093.53;6226410;28;20053;-73
2023/06/20 01:38:49;;;;;;;9.68;5.28;;;;;;;19.11;100.00;101101.41;6228246;28;20049;-73
2023/06/20 01:41:51;;;;;;;7.97;4.85;;;;;;;19.09;100.00;101103.34;6227223;28;20350;-73
2023/06/20 01:44:54;;;;;;;9.77;6.10;;;;;;;19.09;100.00;101099.84;6227342;28;20053;-74
2023/06/20 01:47:59;;;;;;;9.60;5.57;;;;;;;19.16;100.00;101091.19;6225249;28;20046;-73
2023/06/20 01:51:01;;;;;;;11.40;5.18;;;;;;;19.16;100.00;101090.34;6245230;28;20049;-74
2023/06/20 01:54:05;;;;;;;12.80;6.18;;;;;;;19.08;100.00;101085.69;6252506;28;20056;-73
2023/06/20 01:57:08;;;;;;;13.23;7.15;;;;;;;19.06;100.00;101087.63;6249225;28;20053;-73
2023/06/20 02:00:11;;;;;;;11.82;5.90;;;;;;;19.07;100.00;101083.97;6251712;28;20438;-74
2023/06/20 02:03:14;;;;;;;10.27;5.53;;;;;;;19.07;100.00;101085.81;6252362;28;20381;-73
2023/06/20 02:06:16;;;;;;;8.90;5.82;;;;;;;18.98;100.00;101080.25;6252381;28;20449;-73
2023/06/20 02:09:20;;;;;;;13.88;6.97;;;;;;;18.92;100.00;101087.94;6252279;28;20347;-73
2023/06/20 02:12:21;;;;;;;10.85;6.30;;;;;;;18.93;100.00;101079.81;6251655;28;20045;-73
2023/06/20 02:15:25;;;;;;;9.32;5.65;;;;;;;18.93;100.00;101090.47;6252323;28;20048;-73
2023/06/20 02:18:31;;;;;;;12.73;6.63;;;;;;;18.91;100.00;101088.91;6252280;28;20042;-74
2023/06/20 02:21:37;;;;;;;10.07;6.10;;;;;;;18.92;100.00;101095.91;6250772;28;20323;-73
2023/06/20 02:24:42;;;;;;;10.25;6.32;;;;;;;18.95;100.00;101099.19;6250260;28;20048;-73
2023/06/20 02:27:47;;;;;;;10.52;6.22;;;;;;;18.94;100.00;101093.97;6251882;28;20045;-73
2023/06/20 02:30:51;;;;;;;10.50;5.90;;;;;;;18.92;100.00;101095.91;6251674;28;20041;-73
2023/06/20 02:33:59;;;;;;;9.60;5.57;;;;;;;18.92;100.00;101087.94;6235684;28;20045;-74
2023/06/20 02:37:03;;;;;;;8.82;5.25;;;;;;;18.90;100.00;101085.41;6251815;28;20053;-73
2023/06/20 02:40:09;;;;;;;13.80;8.15;;;;;;;18.87;100.00;101082.16;6234421;28;20049;-74
2023/06/20 02:43:10;;;;;;;12.40;6.95;;;;;;;18.85;100.00;101081.41;6251541;28;20184;-73
2023/06/20 02:46:17;;;;;;;12.93;7.00;;;;;;;18.83;100.00;101078.88;6243302;28;20057;-74
2023/06/20 02:49:28;;;;;;;12.13;6.50;;;;;;;18.79;100.00;101085.44;6246274;28;20069;-74
2023/06/20 02:52:38;;;;;;;11.25;6.25;;;;;;;18.82;100.00;101087.84;6235767;28;20132;-73
2023/06/20 02:55:46;;;;;;;13.48;7.68;;;;;;;18.78;100.00;101080.25;6243848;28;20060;-74
2023/06/20 02:58:52;;;;;;;10.85;7.07;;;;;;;18.79;100.00;101082.78;6235003;28;20046;-73
2023/06/20 03:01:58;;;;;;;12.27;7.18;;;;;;;18.77;100.00;101079.41;6234552;28;20125;-74
2023/06/20 03:05:02;;;;;;;8.52;5.95;;;;;;;18.80;100.00;101087.13;6235041;28;20056;-74
2023/06/20 03:08:05;;;;;;;12.40;7.07;;;;;;;18.77;100.00;101092.72;6226629;28;20355;-74
2023/06/20 03:11:09;;;;;;;14.15;7.47;;;;;;;18.74;100.00;101090.28;6226147;28;20057;-73
2023/06/20 03:14:12;;;;;;;16.65;7.18;;;;;;;18.76;100.00;101091.03;6223578;28;20355;-74
2023/06/20 03:17:14;;;;;;;9.07;6.07;;;;;;;18.77;100.00;101084.72;6226571;28;20053;-73
2023/06/20 03:20:16;;;;;;;11.50;7.55;;;;;;;18.74;100.00;101075.16;6225865;28;20053;-74
2023/06/20 03:23:17;;;;;;;9.32;5.82;;;;;;;18.73;100.00;101081.47;6226192;28;20053;-74
2023/06/20 03:26:20;;;;;;;11.98;7.22;;;;;;;18.69;100.00;101071.19;6226190;28;20059;-73
2023/06/20 03:29:22;;;;;;;10.57;5.78;;;;;;;18.64;100.00;101076.88;6226247;28;20085;-73
2023/06/20 03:32:23;;;;;;;8.00;5.60;;;;;;;18.60;100.00;101078.09;6225204;28;20046;-73
2023/06/20 03:35:24;;;;;;;13.65;7.13;;;;;;;18.56;100.00;101071.31;6226003;28;20050;-74
2023/06/20 03:38:26;;;;;;;11.32;7.05;;;;;;;18.51;100.00;101081.50;6226320;28;20054;-74
2023/06/20 03:41:28;;;;;;;14.40;6.82;;;;;;;18.54;100.00;101093.72;6225207;28;20068;-73
2023/06/20 03:44:30;;;;;;;10.32;6.25;;;;;;;18.56;100.00;101094.44;6226085;28;20054;-74
2023/06/20 03:47:31;;;;;;;10.02;6.03;;;;;;;18.58;100.00;101087.19;6226181;28;20051;-73
2023/06/20 03:50:32;;;;;;;8.93;5.72;;;;;;;18.58;100.00;101090.69;6215301;28;20042;-74
2023/06/20 03:53:34;;;;;;;7.75;5.25;;;;;;;18.63;100.00;101088.50;6209200;28;20045;-74
2023/06/20 03:56:36;;;;;;;12.20;6.78;;;;;;;18.63;100.00;101090.31;6205028;28;20143;-74
2023/06/20 03:59:38;;;;;;;9.05;5.60;;;;;;;18.59;100.00;101084.38;6211462;28;20048;-74
2023/06/20 04:02:41;;;;;;;9.38;5.47;;;;;;;18.63;100.00;101085.81;6212039;28;20053;-73
2023/06/20 04:05:43;;;;;;;10.80;5.85;;;;;;;18.64;100.00;101087.50;6205434;28;20049;-74
2023/06/20 04:08:45;;;;;;;12.07;5.72;;;;;;;18.64;100.00;101084.84;6204161;28;20049;-74
2023/06/20 04:11:47;;;;;;;10.23;5.63;;;;;;;18.67;100.00;101081.09;6205716;28;20046;-73
2023/06/20 04:14:51;;;;;;;10.35;5.60;;;;;;;18.73;100.00;101083.28;6202993;28;20050;-74
2023/06/20 04:17:52;;;;;;;15.35;8.52;;;;;;;18.75;100.00;101084.00;6204575;28;20088;-74
2023/06/20 04:20:54;;;;;;;13.88;8.02;;;;;;;18.82;100.00;101081.69;6203539;28;20042;-74
2023/06/20 04:23:55;;;;;;;15.23;6.30;;;;;;;18.85;100.00;101074.28;6205930;28;20495;-74
2023/06/20 04:26:58;;;;;;;11.55;6.97;;;;;;;18.88;100.00;101082.00;6204443;28;20113;-74
2023/06/20 04:29:59;;;;;;;9.75;6.45;;;;;;;18.91;100.00;101073.78;6204232;28;20050;-74
2023/06/20 04:33:00;;;;;;;11.55;6.20;;;;;;;18.97;100.00;101075.91;6205515;28;20046;-74
2023/06/20 04:36:02;;;;;;;8.45;5.30;;;;;;;19.04;100.00;101086.06;6203391;28;20046;-74
2023/06/20 04:39:04;;;;;;;9.57;5.07;;;;;;;19.06;100.00;101084.97;6203457;28;20038;-74
2023/06/20 04:42:07;;;;;;;11.63;6.50;;;;;;;19.10;100.00;101080.22;6209449;28;20045;-74
2023/06/20 04:45:09;;;;;;;10.52;5.93;;;;;;;19.13;100.00;101078.16;6206843;28;20131;-75
2023/06/20 04:48:11;;;;;;;8.02;4.75;;;;;;;19.14;100.00;101081.66;6208314;28;20143;-74
2023/06/20 04:51:13;;;;;;;7.00;4.75;;;;;;;19.15;100.00;101099.34;6222938;28;20046;-73
2023/06/20 04:54:14;;;;;;;10.90;5.38;;;;;;;19.15;100.00;101102.00;6229478;28;20054;-73
2023/06/20 04:57:17;;;;;;;8.70;5.70;;;;;;;19.15;100.00;101104.66;6229941;28;20053;-74
2023/06/20 05:00:19;;;;;;;10.52;6.95;;;;;;;19.19;100.00;101090.94;6228963;28;22020;-74
2023/06/20 05:03:20;;;;;;;10.80;5.63;;;;;;;19.23;100.00;101102.19;6229524;28;20049;-73
2023/06/20 05:06:21;;;;;;;7.57;4.97;;;;;;;19.29;100.00;101093.69;6229448;28;20347;-73
2023/06/20 05:09:23;;;;;;;11.32;5.40;;;;;;;19.31;100.00;101094.41;6229442;28;20056;-74
2023/06/20 05:12:26;;;;;;;10.65;6.20;;;;;;;19.33;100.00;101096.94;6228920;28;20042;-73
2023/06/20 05:15:27;;;;;;;9.30;6.10;;;;;;;19.31;100.00;101099.75;6220159;28;20046;-73
2023/06/20 05:18:28;;;;;;;11.63;5.95;;;;;;;19.28;100.00;101100.00;6229123;28;20370;-73
2023/06/20 05:21:30;;;;;;;11.23;6.68;;;;;;;19.31;100.00;101096.25;6228170;28;20457;-74
2023/06/20 05:24:31;;;;;;;11.57;6.55;;;;;;;19.38;100.00;101103.56;6228835;28;20064;-74
2023/06/20 05:27:34;;;;;;;11.63;6.50;;;;;;;19.43;100.00;101096.00;6228878;28;20042;-73
2023/06/20 05:30:35;;;;;;;12.32;6.13;;;;;;;19.48;100.00;101100.97;6227802;28;20358;-74
2023/06/20 05:33:36;;;;;;;14.30;6.78;;;;;;;19.53;100.00;101112.09;6228593;28;20065;-74
2023/06/20 05:36:38;;;;;;;11.93;6.78;;;;;;;19.52;100.00;101108.56;6227470;28;20050;-74
2023/06/20 05:39:39;;;;;;;26.00;8.07;;;;;;;19.55;100.00;101114.63;6227375;28;20434;-74
2023/06/20 05:42:42;;;;;;;27.25;7.95;;;;;;;19.58;100.00;101103.72;6226212;28;20041;-74
2023/06/20 05:45:43;;;;;;;10.88;6.47;;;;;;;19.62;100.00;101105.13;6227194;28;20129;-73
2023/06/20 05:48:48;;;;;;;11.77;6.43;;;;;;;19.67;100.00;101108.28;6226943;28;20054;-74
2023/06/20 05:51:49;;;;;;;9.95;6.63;;;;;;;19.71;100.00;101109.69;6226436;28;20049;-74
2023/06/20 05:54:53;;;;;;;9.30;5.90;;;;;;;19.75;100.00;101108.44;6226581;28;20069;-74
2023/06/20 05:57:56;;;;;;;11.13;6.60;;;;;;;19.80;100.00;101108.88;6225862;28;20378;-73
2023/06/20 06:00:58;;;;;;;9.90;6.15;;;;;;;19.87;100.00;101098.53;6225942;28;20057;-73
2023/06/20 06:04:01;;;;;;;15.65;6.97;;;;;;;19.87;100.00;101110.06;6226554;28;20054;-73
2023/06/20 06:07:07;;;;;;;11.73;6.38;;;;;;;19.92;100.00;101104.31;6226707;28;20053;-73
2023/06/20 06:10:10;;;;;;;11.32;7.57;;;;;;;19.90;100.00;101100.97;6225850;28;20062;-74
2023/06/20 06:13:13;;;;;;;14.70;7.00;;;;;;;19.92;100.00;101109.66;6226457;28;20053;-73
2023/06/20 06:16:14;;;;;;;10.68;6.22;;;;;;;19.92;100.00;101102.50;6226167;28;20042;-74
2023/06/20 06:19:16;;;;;;;12.00;7.38;;;;;;;19.91;100.00;101108.81;6226396;28;20058;-73
2023/06/20 06:22:20;;;;;;;11.70;5.70;;;;;;;19.94;100.00;101113.03;6225890;28;20042;-73
2023/06/20 06:25:21;;;;;;;9.68;6.30;;;;;;;19.92;100.00;101128.34;6226331;28;20053;-72
2023/06/20 06:28:26;;;;;;;13.23;6.97;;;;;;;19.95;100.00;101149.41;6226507;28;20064;-73
2023/06/20 06:31:29;;;;;;;10.63;6.75;;;;;;;19.91;100.00;101180.00;6225995;28;20458;-73
2023/06/20 06:34:32;;;;;;;13.63;5.68;;;;;;;19.91;100.00;101191.50;6226048;28;20132;-73
2023/06/20 06:37:33;;;;;;;8.48;5.75;;;;;;;19.93;100.00;101181.53;6225961;28;20045;-73
2023/06/20 06:40:34;;;;;;;10.13;6.15;;;;;;;19.94;100.00;101187.72;6225088;28;20070;-74
2023/06/20 06:43:37;;;;;;;10.30;6.38;;;;;;;19.95;100.00;101178.75;6225470;28;20370;-73
2023/06/20 06:46:38;;;;;;;8.60;4.95;;;;;;;19.94;100.00;101174.38;6227162;28;20052;-73
2023/06/20 06:49:40;;;;;;;11.93;6.28;;;;;;;19.94;100.00;101177.94;6226157;28;20346;-73
2023/06/20 06:52:41;;;;;;;12.80;7.40;;;;;;;19.91;100.00;101175.50;6222448;28;20053;-73
2023/06/20 06:55:45;;;;;;;10.23;6.78;;;;;;;19.89;100.00;101185.44;6225038;28;20053;-73
2023/06/20 06:58:48;;;;;;;11.25;6.55;;;;;;;19.86;100.00;101180.41;6225472;28;20133;-73
2023/06/20 07:01:50;;;;;;;9.80;6.40;;;;;;;19.85;100.00;101170.72;6224441;28;20046;-73
2023/06/20 07:04:52;;;;;;;14.90;7.20;;;;;;;19.83;100.00;101161.97;6225014;28;20046;-73
2023/06/20 07:07:53;;;;;;;13.18;8.05;;;;;;;19.75;100.00;101165.28;6224868;28;20045;-73
2023/06/20 07:10:54;;;;;;;11.32;7.47;;;;;;;19.82;100.00;101172.78;6224640;28;20057;-73
2023/06/20 07:13:57;;;;;;;12.20;8.15;;;;;;;19.80;100.00;101164.06;6225301;28;20067;-72
2023/06/20 07:16:58;;;;;;;17.48;8.48;;;;;;;19.76;100.00;101164.34;6224047;28;20050;-74
2023/06/20 07:20:00;;;;;;;13.90;8.18;;;;;;;19.76;100.00;101172.34;6225406;28;20053;-74
2023/06/20 07:23:01;;;;;;;18.52;9.40;;;;;;;19.76;100.00;101171.50;6224218;28;20181;-74
2023/06/20 07:26:04;;;;;;;14.02;8.40;;;;;;;19.79;100.00;101167.72;6225363;28;20054;-74
2023/06/20 07:29:06;;;;;;;14.63;8.77;;;;;;;19.81;100.00;101171.94;6225037;28;20350;-73
2023/06/20 07:32:08;;;;;;;13.88;8.73;;;;;;;19.77;100.00;101173.19;6224735;28;20049;-74
2023/06/20 07:35:10;;;;;;;15.00;9.02;;;;;;;19.69;100.00;101173.81;6225386;28;20439;-74
2023/06/20 07:38:11;;;;;;;12.73;7.53;;;;;;;19.70;100.00;101162.19;6225169;28;20054;-73
2023/06/20 07:41:12;;;;;;;13.40;8.15;;;;;;;19.75;100.00;101161.78;6224326;28;20667;-74
2023/06/20 07:44:15;;;;;;;15.55;9.27;;;;;;;19.83;100.00;101164.66;6224996;28;20062;-74
2023/06/20 07:47:16;;;;;;;15.23;8.73;;;;;;;19.85;100.00;101161.84;6224989;28;20069;-74
2023/06/20 07:50:18;;;;;;;19.08;9.57;;;;;;;19.83;100.00;101151.31;6224528;28;20057;-74
2023/06/20 07:53:19;;;;;;;17.98;10.40;;;;;;;19.89;100.00;101142.75;6224682;28;20042;-74
2023/06/20 07:56:20;;;;;;;16.77;9.52;;;;;;;19.90;100.00;101143.63;6224829;28;20057;-74
2023/06/20 07:59:23;;;;;;;16.85;8.88;;;;;;;19.99;100.00;101148.19;6224692;28;20350;-74
2023/06/20 08:02:24;;;;;;;19.13;11.10;;;;;;;20.02;100.00;101135.41;6223737;28;20046;-74
2023/06/20 08:05:26;;;;;;;14.48;9.68;;;;;;;20.04;100.00;101134.44;6224504;28;20045;-74
2023/06/20 08:08:27;;;;;;;16.00;10.65;;;;;;;20.10;100.00;101132.06;6224621;28;20053;-74
2023/06/20 08:11:29;;;;;;;17.33;10.68;;;;;;;20.07;100.00;101126.16;6224039;28;20056;-74
2023/06/20 08:14:32;;;;;;;19.58;11.82;;;;;;;20.09;100.00;101133.06;6224961;28;20054;-74
2023/06/20 08:17:33;;;;;;;17.38;11.27;;;;;;;20.11;100.00;101131.09;6225898;28;20058;-74
2023/06/20 08:20:35;;;;;;;15.90;10.10;;;;;;;20.16;100.00;101120.84;6228253;28;20057;-74
2023/06/20 08:23:36;;;;;;;14.50;8.70;;;;;;;20.20;100.00;101114.25;6230410;28;20042;-74
2023/06/20 08:26:37;;;;;;;18.25;9.82;;;;;;;20.25;100.00;101117.38;6230512;28;20057;-74
2023/06/20 08:29:40;;;;;;;16.42;9.55;;;;;;;20.28;100.00;101103.75;6230416;28;20358;-74
2023/06/20 08:32:42;;;;;;;17.38;10.27;;;;;;;20.35;100.00;101106.75;6224796;28;20042;-74
2023/06/20 08:35:43;;;;;;;15.73;8.93;;;;;;;20.39;100.00;101107.28;6228707;28;20060;-74
2023/06/20 08:38:45;;;;;;;16.48;9.70;;;;;;;20.39;100.00;101102.78;6230299;28;20061;-74
2023/06/20 08:41:46;;;;;;;16.33;10.05;;;;;;;20.45;100.00;101098.75;6229318;28;20053;-74
2023/06/20 08:44:50;;;;;;;18.73;11.30;;;;;;;20.42;100.00;101104.34;6229740;28;20053;-74
2023/06/20 08:47:51;;;;;;;17.63;10.43;;;;;;;20.44;100.00;101103.25;6230167;28;20065;-74
2023/06/20 08:50:53;;;;;;;20.63;9.90;;;;;;;20.37;100.00;101104.78;6226494;28;20360;-74
2023/06/20 08:53:55;;;;;;;14.43;9.65;;;;;;;20.41;100.00;101103.53;6221476;28;20042;-74
2023/06/20 08:56:56;;;;;;;16.75;10.45;;;;;;;20.39;100.00;101099.28;6225632;28;20347;-74
2023/06/20 09:00:00;;;;;;;21.40;11.57;;;;;;;20.38;100.00;101097.59;6229461;28;20049;-74
2023/06/20 09:03:01;;;;;;;15.07;9.43;;;;;;;20.40;100.00;101095.66;6227632;28;20048;-74
2023/06/20 09:06:03;;;;;;;16.38;10.43;;;;;;;20.45;100.00;101093.41;6228807;28;20049;-74
2023/06/20 09:09:05;;;;;;;15.30;10.32;;;;;;;20.45;100.00;101086.25;6228864;28;20064;-74
2023/06/20 09:12:07;;;;;;;14.85;9.15;;;;;;;20.51;100.00;101093.72;6228723;28;20132;-74
2023/06/20 09:15:12;;;;;;;17.48;10.45;;;;;;;20.62;100.00;101091.91;6229197;28;20057;-74
2023/06/20 09:18:14;;;;;;;15.10;10.30;;;;;;;20.73;100.00;101089.13;6225687;28;20054;-74
2023/06/20 09:21:16;;;;;;;15.20;9.35;;;;;;;20.77;100.00;101083.38;6228427;28;20139;-74
2023/06/20 09:24:19;;;;;;;17.88;9.90;;;;;;;20.85;100.00;101090.69;6228544;28;20462;-74
2023/06/20 09:27:21;;;;;;;15.68;9.77;;;;;;;20.83;100.00;101089.13;6229149;28;20061;-79
2023/06/20 09:30:28;;;;;;;16.40;9.43;;;;;;;20.86;100.00;101091.53;6227585;28;20050;-74
2023/06/20 09:33:31;;;;;;;13.40;8.73;;;;;;;20.88;100.00;101089.56;6228815;28;20057;-74
2023/06/20 09:36:33;;;;;;;14.77;8.85;;;;;;;20.97;100.00;101096.72;6228856;28;20046;-74
2023/06/20 09:39:35;;;;;;;15.35;8.63;;;;;;;20.96;100.00;101101.22;6228791;28;20375;-74
2023/06/20 09:42:37;;;;;;;13.70;8.88;;;;;;;21.01;100.00;101085.63;6228216;28;20053;-74
2023/06/20 09:45:40;;;;;;;12.68;8.38;;;;;;;20.95;100.00;101091.53;6228641;28;20054;-73
2023/06/20 09:48:42;;;;;;;11.32;7.80;;;;;;;20.88;100.00;101090.41;6228617;28;20461;-74
2023/06/20 09:51:48;;;;;;;11.98;7.63;;;;;;;20.93;100.00;101089.97;6227846;28;20054;-73
2023/06/20 09:54:54;;;;;;;12.20;7.50;;;;;;;20.93;100.00;101095.31;6228226;28;20050;-74
2023/06/20 09:57:58;;;;;;;11.85;7.43;;;;;;;20.92;100.00;101090.97;6228404;28;20049;-73
2023/06/20 10:01:01;;;;;;;12.25;7.70;;;;;;;20.94;100.00;101083.66;6227333;28;20050;-73
2023/06/20 10:04:03;;;;;;;10.70;7.03;;;;;;;20.94;100.00;101086.34;6221687;28;20053;-73
2023/06/20 10:07:05;;;;;;;11.75;7.47;;;;;;;21.05;100.00;101083.50;6228104;28;20054;-73
2023/06/20 10:10:07;;;;;;;12.98;8.32;;;;;;;21.07;100.00;101084.19;6227205;28;20370;-74
2023/06/20 10:13:09;;;;;;;11.80;8.07;;;;;;;21.03;100.00;101077.47;6227925;28;20049;-73
2023/06/20 10:16:12;;;;;;;11.27;7.53;;;;;;;21.05;100.00;101074.66;6228204;28;20462;-73
2023/06/20 10:19:17;;;;;;;11.60;7.32;;;;;;;21.07;100.00;101067.31;6227965;28;20056;-75
2023/06/20 10:22:34;;;;;;;11.27;7.18;;;;;;;21.12;100.00;101057.91;6227051;28;20046;-74
2023/06/20 10:25:35;;;;;;;11.25;7.45;;;;;;;21.26;100.00;101056.63;6227765;28;20054;-73
2023/06/20 10:28:38;;;;;;;13.10;7.40;;;;;;;21.37;100.00;101044.94;6227607;28;20347;-73
2023/06/20 10:31:57;;;;;;;12.15;6.20;;;;;;;21.46;100.00;101050.25;6227083;28;20077;-73
2023/06/20 10:35:07;;;;;;;9.18;5.97;;;;;;;21.53;100.00;101035.34;6220106;28;20056;-73
2023/06/20 10:38:09;;;;;;;10.25;6.40;;;;;;;21.63;100.00;101024.59;6227430;28;20054;-73
2023/06/20 10:41:13;;;;;;;11.40;6.97;;;;;;;21.73;100.00;101021.88;6226725;28;20347;-73
2023/06/20 10:44:28;;;;;;;9.77;6.10;;;;;;;21.90;100.00;101033.66;6225915;28;20129;-73
2023/06/20 10:47:31;;;;;;;12.05;7.07;;;;;;;21.95;100.00;101039.41;6203100;28;20195;-73
2023/06/20 10:50:32;;;;;;;7.38;5.80;;;;;;;22.06;100.00;101041.00;6202099;28;20470;-73
2023/06/20 10:53:34;;;;;;;9.45;6.25;;;;;;;22.11;100.00;101047.59;6217252;28;20046;-73
2023/06/20 10:56:35;;;;;;;8.00;5.95;;;;;;;22.13;100.00;101040.31;6226938;28;20362;-73
2023/06/20 10:59:37;;;;;;;8.70;5.82;;;;;;;22.17;100.00;101033.66;6226939;28;20359;-73
2023/06/20 11:02:39;;;;;;;10.63;6.03;;;;;;;22.18;100.00;101029.16;6226303;28;20073;-73
2023/06/20 11:05:41;;;;;;;8.77;5.70;;;;;;;22.28;100.00;101028.09;6226769;28;20093;-73
2023/06/20 11:08:43;;;;;;;9.40;5.65;;;;;;;22.40;100.00;101030.56;6227015;28;20053;-73
2023/06/20 11:11:44;;;;;;;6.07;4.78;;;;;;;22.46;100.00;101021.91;6226081;28;20382;-73
2023/06/20 11:14:46;;;;;;;4.50;3.63;;;;;;;22.61;100.00;101012.34;6226639;28;20045;-74
2023/06/20 11:17:49;;;;;;;6.53;4.63;;;;;;;22.80;100.00;101016.72;6225290;28;20053;-73
2023/06/20 11:20:50;;;;;;;8.73;4.47;;;;;;;22.83;100.00;101007.50;6225915;28;20042;-73
2023/06/20 11:23:58;;;;;;;6.03;4.38;;;;;;;22.86;100.00;101004.53;6225952;28;20046;-73
2023/06/20 11:27:11;;;;;;;7.50;5.22;;;;;;;22.91;100.00;100996.88;6219105;28;20423;-73
2023/06/20 11:30:14;;;;;;;6.57;4.60;;;;;;;22.91;100.00;100995.03;6225576;28;20108;-73
2023/06/20 11:33:19;;;;;;;7.97;5.32;;;;;;;23.02;100.00;100993.94;6226715;28;20052;-78
2023/06/20 11:36:21;;;;;;;8.02;5.68;;;;;;;23.00;100.00;100998.63;6226158;28;20049;-78
2023/06/20 11:39:25;;;;;;;6.65;4.68;;;;;;;22.98;100.00;101005.97;6226239;28;20359;-73
2023/06/20 11:42:33;;;;;;;8.38;5.40;;;;;;;22.98;100.00;101009.53;6225282;28;20054;-74
2023/06/20 11:45:35;;;;;;;6.47;4.53;;;;;;;23.19;100.00;101002.94;6226346;28;20470;-74
2023/06/20 11:48:37;;;;;;;5.80;4.40;;;;;;;23.28;100.00;101002.00;6225988;28;20333;-73
2023/06/20 11:51:39;;;;;;;5.45;3.75;;;;;;;23.29;100.00;100999.16;6224906;28;20042;-74
2023/06/20 11:54:47;;;;;;;5.35;3.85;;;;;;;23.34;100.00;101003.19;6225053;28;20354;-74
2023/06/20 11:57:49;;;;;;;6.65;4.47;;;;;;;23.32;100.00;100999.84;6225966;28;20041;-74
2023/06/20 12:01:10;;;;;;;7.68;3.80;;;;;;;23.34;100.00;101000.53;6225417;28;20061;-74
2023/06/20 12:04:14;;;;;;;6.38;3.63;;;;;;;23.36;100.00;100998.53;6226052;28;20050;-73
2023/06/20 12:07:18;;;;;;;6.07;4.43;;;;;;;23.42;100.00;100990.69;6226159;28;20061;-74
2023/06/20 12:10:20;;;;;;;7.78;3.63;;;;;;;23.47;100.00;100987.53;6223755;28;20423;-74
2023/06/20 12:13:22;;;;;;;6.63;3.60;;;;;;;23.45;100.00;100992.22;6224422;28;20358;-74
2023/06/20 12:16:24;;;;;;;5.78;3.83;;;;;;;23.48;100.00;100981.16;6224403;28;20042;-74
2023/06/20 12:19:27;;;;;;;6.45;4.10;;;;;;;23.55;100.00;100977.66;6224624;28;20058;-74
2023/06/20 12:22:29;;;;;;;5.47;4.00;;;;;;;23.64;100.00;100983.94;6224451;28;20347;-74
2023/06/20 12:25:30;;;;;;;5.82;4.00;;;;;;;24.11;100.00;100986.13;6225669;28;20053;-74
2023/06/20 12:28:32;;;;;;;6.55;4.30;;;;;;;24.35;100.00;100977.28;6225592;28;20046;-74
2023/06/20 12:31:33;;;;;;;6.00;4.32;;;;;;;24.33;100.00;100973.91;6225130;28;20057;-74
2023/06/20 12:34:36;;;;;;;5.68;3.85;;;;;;;24.38;100.00;100966.22;6225165;28;20507;-74
2023/06/20 12:37:40;;;;;;;6.05;3.63;;;;;;;24.42;100.00;100966.72;6221206;28;20140;-74
2023/06/20 12:40:41;;;;;;;9.05;3.97;;;;;;;24.52;100.00;100967.41;6223344;28;20046;-74
2023/06/20 12:43:42;;;;;;;5.43;3.63;;;;;;;24.73;100.00;100958.84;6221656;28;20147;-74
2023/06/20 12:46:44;;;;;;;6.05;3.65;;;;;;;25.04;100.00;100945.53;6223774;28;20356;-74
2023/06/20 12:49:47;;;;;;;5.47;3.58;;;;;;;25.23;100.00;100944.34;6223930;28;20053;-74
2023/06/20 12:52:48;;;;;;;4.70;3.88;;;;;;;25.10;100.00;100941.34;6224294;28;20042;-73
2023/06/20 12:55:50;;;;;;;4.20;3.40;;;;;;;24.92;100.00;100942.34;6225229;28;20046;-74
2023/06/20 12:58:52;;;;;;;4.68;3.55;;;;;;;24.80;100.00;100944.56;6225493;28;20184;-73
2023/06/20 13:01:53;;;;;;;5.10;3.50;;;;;;;24.96;100.00;100940.16;6224677;28;20057;-73
2023/06/20 13:04:56;;;;;;;3.88;3.20;;;;;;;25.14;100.00;100931.94;6225805;28;20129;-74
2023/06/20 13:07:57;;;;;;;4.45;3.10;;;;;;;25.24;100.00;100930.72;6233437;28;20103;-73
2023/06/20 13:10:58;;;;;;;4.05;2.60;;;;;;;25.52;100.00;100922.19;6228562;28;20057;-74
2023/06/20 13:14:00;;;;;;;4.13;2.85;;;;;;;25.95;100.00;100911.91;6229334;28;20434;-73
2023/06/20 13:17:01;;;;;;;4.80;3.20;;;;;;;26.19;100.00;100919.00;6229079;28;20049;-73
2023/06/20 13:20:06;;;;;;;4.35;3.08;;;;;;;26.15;100.00;100912.28;6229305;28;20057;-74
2023/06/20 13:23:08;;;;;;;4.38;2.97;;;;;;;26.10;100.00;100907.44;6228852;28;20461;-73
2023/06/20 13:26:11;;;;;;;4.25;2.78;;;;;;;26.26;100.00;100915.41;6229364;28;20056;-74
2023/06/20 13:29:12;;;;;;;3.78;2.80;;;;;;;26.50;100.00;100902.78;6227913;28;20072;-74
2023/06/20 13:32:13;;;;;;;3.25;2.47;;;;;;;26.86;100.00;100908.31;6226558;28;20081;-73
2023/06/20 13:35:17;;;;;;;3.40;2.55;;;;;;;27.11;100.00;100902.69;6228941;28;21165;-73
2023/06/20 13:38:19;;;;;;;4.65;2.55;;;;;;;27.26;100.00;100912.47;6227967;28;20092;-73
2023/06/20 13:41:20;;;;;;;3.75;2.92;;;;;;;27.43;100.00;100906.84;6227093;28;20381;-73
2023/06/20 13:44:22;;;;;;;3.72;2.85;;;;;;;27.09;100.00;100907.44;6235447;28;20048;-73
2023/06/20 13:47:23;;;;;;;3.50;2.55;;;;;;;26.79;100.00;100905.50;6215659;28;20049;-73
2023/06/20 13:50:26;;;;;;;3.65;2.70;;;;;;;26.98;100.00;100901.47;6221746;28;20332;-73
2023/06/20 13:53:27;;;;;;;3.72;2.88;;;;;;;27.26;100.00;100898.13;6227622;28;20354;-73